Time;durP1;ratioP1;P1;durP2;ratioP2;P2;SDS_P1;SDS_P2;PMS_P1;PMS_P2;Temp;Humidity;BMP_temperature;BMP_pressure;BME280_temperature;BME280_humidity;BME280_pressure;Samples;Min_cycle;Max_cycle;Signal;HPM_P1;HPM_P2
2023/07/12 00:00:30;;;;;;;2.75;1.77;;;19.00;99.90;;;;;;5048543;28;20024;-75
2023/07/12 00:02:57;;;;;;;2.70;0.90;;;19.00;99.90;;;;;;5036544;28;20035;-76
2023/07/12 00:05:28;;;;;;;2.83;1.17;;;19.00;99.90;;;;;;5046907;28;20040;-74
2023/07/12 00:07:54;;;;;;;3.35;1.40;;;18.90;99.90;;;;;;5049219;28;20028;-75
2023/07/12 00:10:23;;;;;;;2.22;1.23;;;18.90;99.90;;;;;;5037333;28;20036;-76
2023/07/12 00:12:50;;;;;;;3.28;1.38;;;18.90;99.90;;;;;;5047702;28;20396;-76
2023/07/12 00:15:31;;;;;;;1.98;1.00;;;18.90;99.90;;;;;;5053011;28;20432;-74
2023/07/12 00:17:57;;;;;;;3.10;1.20;;;18.90;99.90;;;;;;5046502;28;20700;-74
2023/07/12 00:20:33;;;;;;;2.58;1.33;;;18.90;99.90;;;;;;5031150;28;20368;-74
2023/07/12 00:23:00;;;;;;;2.45;1.20;;;18.90;99.90;;;;;;5069002;27;20040;-75
2023/07/12 00:25:31;;;;;;;3.15;1.13;;;18.90;99.90;;;;;;5047909;28;20047;-75
2023/07/12 00:27:59;;;;;;;4.35;1.58;;;18.80;99.90;;;;;;5032419;28;20032;-76
2023/07/12 00:30:36;;;;;;;4.65;1.27;;;18.80;99.90;;;;;;5036236;28;21408;-75
2023/07/12 00:33:04;;;;;;;3.33;1.02;;;18.80;99.90;;;;;;5046404;28;20511;-75
2023/07/12 00:35:32;;;;;;;2.88;1.00;;;18.80;99.90;;;;;;5023848;28;20498;-75
2023/07/12 00:38:00;;;;;;;3.65;1.33;;;18.80;99.90;;;;;;5050300;28;20027;-74
2023/07/12 00:40:48;;;;;;;3.10;1.55;;;18.70;99.90;;;;;;5048189;28;20040;-74
2023/07/12 00:43:35;;;;;;;2.47;1.27;;;18.70;99.90;;;;;;5038735;28;20101;-76
2023/07/12 00:46:23;;;;;;;2.10;1.00;;;18.60;99.90;;;;;;5044604;28;20474;-74
2023/07/12 00:48:50;;;;;;;2.65;1.00;;;18.60;99.90;;;;;;5032539;28;20051;-74
2023/07/12 00:51:54;;;;;;;3.75;1.30;;;18.60;99.90;;;;;;5037950;28;20032;-75
2023/07/12 00:54:25;;;;;;;1.95;0.98;;;18.70;99.90;;;;;;5052116;28;20036;-76
2023/07/12 00:56:51;;;;;;;6.25;1.23;;;18.60;99.90;;;;;;5035288;28;20185;-74
2023/07/12 00:59:29;;;;;;;4.40;1.45;;;18.60;99.90;;;;;;5047206;28;20036;-75
2023/07/12 01:02:00;;;;;;;3.15;1.17;;;18.60;99.90;;;;;;5040815;28;20495;-74
2023/07/12 01:04:35;;;;;;;7.40;2.07;;;18.60;99.90;;;;;;5042743;28;20055;-75
2023/07/12 01:07:02;;;;;;;3.90;1.42;;;18.60;99.90;;;;;;5046848;28;20043;-74
2023/07/12 01:09:28;;;;;;;3.97;1.30;;;18.60;99.90;;;;;;5029369;28;20477;-74
2023/07/12 01:11:56;;;;;;;3.33;1.30;;;18.50;99.90;;;;;;5047129;28;20036;-74
2023/07/12 01:14:26;;;;;;;7.15;2.33;;;18.50;99.90;;;;;;5051905;28;20718;-74
2023/07/12 01:17:01;;;;;;;2.22;1.38;;;18.40;99.90;;;;;;5035830;28;20028;-74
2023/07/12 01:19:29;;;;;;;4.50;1.60;;;18.40;99.90;;;;;;5033180;28;20043;-74
2023/07/12 01:21:56;;;;;;;2.63;1.33;;;18.30;99.90;;;;;;5026272;28;20052;-75
2023/07/12 01:24:25;;;;;;;3.30;1.48;;;18.30;99.90;;;;;;5058424;28;20036;-74
2023/07/12 01:26:57;;;;;;;3.00;1.85;;;18.30;99.90;;;;;;5029601;28;20039;-75
2023/07/12 01:29:25;;;;;;;2.95;1.30;;;18.30;99.90;;;;;;5045426;28;20036;-74
2023/07/12 01:31:51;;;;;;;7.57;2.17;;;18.30;99.90;;;;;;5046788;28;20029;-74
2023/07/12 01:34:18;;;;;;;6.50;2.65;;;18.30;99.90;;;;;;5068711;28;20024;-74
2023/07/12 01:36:45;;;;;;;6.88;2.50;;;18.20;99.90;;;;;;5038809;28;20712;-74
2023/07/12 01:39:12;;;;;;;7.38;2.45;;;18.20;99.90;;;;;;5035355;28;20037;-74
2023/07/12 01:41:39;;;;;;;5.50;1.55;;;18.10;99.90;;;;;;5028635;28;20032;-74
2023/07/12 01:44:05;;;;;;;6.68;1.98;;;18.00;99.90;;;;;;5038998;28;20059;-74
2023/07/12 01:46:32;;;;;;;7.05;2.10;;;18.00;99.90;;;;;;5031605;28;20036;-74
2023/07/12 01:48:58;;;;;;;5.40;1.40;;;18.00;99.90;;;;;;5045158;28;20054;-74
2023/07/12 01:51:27;;;;;;;4.78;1.38;;;18.00;99.90;;;;;;5046981;28;20376;-73
2023/07/12 01:53:54;;;;;;;5.15;1.60;;;17.90;99.90;;;;;;5042706;28;20036;-73
2023/07/12 01:56:21;;;;;;;3.78;1.50;;;17.90;99.90;;;;;;5052432;28;20437;-73
2023/07/12 01:58:47;;;;;;;5.72;1.67;;;17.90;99.90;;;;;;5051520;28;20027;-75
2023/07/12 02:01:14;;;;;;;7.85;2.38;;;17.80;99.90;;;;;;5030584;28;20351;-74
2023/07/12 02:03:40;;;;;;;7.50;2.17;;;17.80;99.90;;;;;;5033790;28;20047;-73
2023/07/12 02:06:07;;;;;;;8.05;1.85;;;17.70;99.90;;;;;;5047128;28;20063;-74
2023/07/12 02:08:33;;;;;;;8.27;1.67;;;17.70;99.90;;;;;;5045959;28;20643;-74
2023/07/12 02:11:00;;;;;;;3.88;1.30;;;17.70;99.90;;;;;;5046490;28;20467;-74
2023/07/12 02:13:26;;;;;;;6.53;1.42;;;17.70;99.90;;;;;;5038853;28;20032;-74
2023/07/12 02:15:52;;;;;;;5.82;1.23;;;17.60;99.90;;;;;;5047278;28;20039;-75
2023/07/12 02:18:20;;;;;;;2.80;0.90;;;17.70;99.90;;;;;;5046914;28;20034;-75
2023/07/12 02:20:48;;;;;;;4.43;1.20;;;17.70;99.90;;;;;;5071765;28;20044;-75
2023/07/12 02:23:14;;;;;;;9.25;1.83;;;17.70;99.90;;;;;;5059054;28;20149;-76
2023/07/12 02:25:41;;;;;;;4.55;1.25;;;17.80;99.90;;;;;;5036849;28;20426;-75
2023/07/12 02:28:07;;;;;;;5.10;1.70;;;17.70;99.90;;;;;;5060301;28;20040;-76
2023/07/12 02:30:34;;;;;;;3.88;1.73;;;17.70;99.90;;;;;;5025020;28;20047;-75
2023/07/12 02:33:00;;;;;;;3.80;1.00;;;17.70;99.90;;;;;;5032135;28;20024;-75
2023/07/12 02:35:29;;;;;;;2.90;1.17;;;17.70;99.90;;;;;;5040652;28;20041;-74
2023/07/12 02:37:57;;;;;;;5.70;2.20;;;17.70;99.90;;;;;;5076276;28;21696;-73
2023/07/12 02:40:25;;;;;;;4.20;1.83;;;17.70;99.90;;;;;;5058983;28;20391;-74
2023/07/12 02:42:52;;;;;;;7.82;1.55;;;17.70;99.90;;;;;;5041775;28;20035;-73
2023/07/12 02:45:18;;;;;;;4.95;1.58;;;17.70;99.90;;;;;;5050764;28;20367;-73
2023/07/12 02:47:45;;;;;;;7.13;1.98;;;17.60;99.90;;;;;;5051073;28;20612;-73
2023/07/12 02:50:11;;;;;;;4.43;1.00;;;17.60;99.90;;;;;;5019749;28;20040;-73
2023/07/12 02:52:38;;;;;;;3.88;1.20;;;17.60;99.90;;;;;;5042535;28;20059;-73
2023/07/12 02:55:05;;;;;;;6.55;1.63;;;17.60;99.90;;;;;;5036962;28;20149;-73
2023/07/12 02:57:32;;;;;;;4.95;1.52;;;17.60;99.90;;;;;;5057407;28;20039;-73
2023/07/12 02:59:58;;;;;;;2.80;1.00;;;17.50;99.90;;;;;;5045785;28;20032;-73
2023/07/12 03:02:25;;;;;;;4.75;0.93;;;17.50;99.90;;;;;;5045214;28;20040;-73
2023/07/12 03:04:51;;;;;;;3.80;0.93;;;17.50;99.90;;;;;;5046053;28;20036;-73
2023/07/12 03:07:17;;;;;;;4.82;1.60;;;17.50;99.90;;;;;;5052245;28;20425;-73
2023/07/12 03:09:44;;;;;;;3.10;0.93;;;17.40;99.90;;;;;;5051754;28;20032;-73
2023/07/12 03:12:10;;;;;;;3.90;1.00;;;17.30;99.90;;;;;;5043166;28;20043;-73
2023/07/12 03:14:37;;;;;;;5.22;0.90;;;17.30;99.90;;;;;;5047892;28;20032;-73
2023/07/12 03:17:05;;;;;;;5.75;1.25;;;17.30;99.90;;;;;;5058253;28;20043;-73
2023/07/12 03:19:35;;;;;;;6.63;1.25;;;17.30;99.90;;;;;;5060213;28;20024;-73
2023/07/12 03:22:02;;;;;;;4.35;0.95;;;17.30;99.90;;;;;;5051829;28;20055;-74
2023/07/12 03:24:29;;;;;;;1.85;0.80;;;17.30;99.90;;;;;;5046822;28;20792;-73
2023/07/12 03:26:55;;;;;;;3.72;1.08;;;17.30;99.90;;;;;;5050665;28;20036;-73
2023/07/12 03:29:22;;;;;;;2.85;0.90;;;17.30;99.90;;;;;;5065104;28;20040;-73
2023/07/12 03:31:48;;;;;;;2.97;1.17;;;17.30;99.90;;;;;;5030013;28;20036;-73
2023/07/12 03:34:14;;;;;;;7.22;2.20;;;17.30;99.90;;;;;;5045107;28;20406;-74
2023/07/12 03:36:41;;;;;;;5.25;1.45;;;17.30;99.90;;;;;;5052393;28;20036;-72
2023/07/12 03:39:08;;;;;;;6.00;1.95;;;17.30;99.90;;;;;;5056202;28;20028;-74
2023/07/12 03:41:34;;;;;;;6.88;2.35;;;17.30;99.90;;;;;;5056854;28;20499;-74
2023/07/12 03:44:01;;;;;;;6.30;1.63;;;17.30;99.90;;;;;;5046091;28;20067;-73
2023/07/12 03:46:27;;;;;;;8.85;2.53;;;17.30;99.90;;;;;;5047651;28;20035;-75
2023/07/12 03:48:54;;;;;;;4.85;1.60;;;17.20;99.90;;;;;;5051566;28;20046;-74
2023/07/12 03:51:22;;;;;;;4.78;1.35;;;17.20;99.90;;;;;;5050866;28;20032;-74
2023/07/12 03:53:49;;;;;;;6.03;1.73;;;17.10;99.90;;;;;;5041340;28;20036;-75
2023/07/12 03:56:15;;;;;;;5.68;1.70;;;17.10;99.90;;;;;;5031001;28;20035;-75
2023/07/12 03:58:42;;;;;;;5.68;1.70;;;17.10;99.90;;;;;;5054747;28;20024;-74
2023/07/12 04:01:10;;;;;;;5.50;1.83;;;17.10;99.90;;;;;;5058437;28;20032;-75
2023/07/12 04:03:38;;;;;;;5.03;2.30;;;17.10;99.90;;;;;;5034460;28;20402;-75
2023/07/12 04:06:06;;;;;;;8.77;2.45;;;17.10;99.90;;;;;;5049275;28;20337;-74
2023/07/12 04:08:32;;;;;;;6.35;2.53;;;17.10;99.90;;;;;;5051565;28;20386;-75
2023/07/12 04:11:00;;;;;;;5.03;2.88;;;17.10;99.90;;;;;;5033382;28;20051;-74
2023/07/12 04:13:26;;;;;;;7.88;2.45;;;17.20;99.90;;;;;;5041903;28;20036;-75
2023/07/12 04:15:59;;;;;;;10.40;4.68;;;17.20;99.90;;;;;;5047284;28;20439;-74
2023/07/12 04:18:26;;;;;;;5.47;3.45;;;17.10;99.90;;;;;;5050314;28;20039;-74
2023/07/12 04:20:54;;;;;;;8.35;4.25;;;17.10;99.90;;;;;;5042340;28;20371;-75
2023/07/12 04:23:21;;;;;;;11.00;4.93;;;17.10;99.90;;;;;;5030439;28;20047;-75
2023/07/12 04:25:48;;;;;;;11.77;6.00;;;17.10;99.90;;;;;;5057946;28;20036;-75
2023/07/12 04:28:15;;;;;;;9.98;5.75;;;17.10;99.90;;;;;;5032139;28;20426;-76
2023/07/12 04:30:41;;;;;;;8.43;5.38;;;17.10;99.90;;;;;;5033615;28;20032;-75
2023/07/12 04:33:07;;;;;;;12.90;8.00;;;17.00;99.90;;;;;;5026312;28;20724;-74
2023/07/12 04:35:38;;;;;;;11.60;6.88;;;17.00;99.90;;;;;;5050870;28;20028;-75
2023/07/12 04:38:05;;;;;;;13.68;10.00;;;17.00;99.90;;;;;;5050297;28;20067;-76
2023/07/12 04:40:31;;;;;;;11.35;8.18;;;17.10;99.90;;;;;;5037262;28;20036;-74
2023/07/12 04:42:58;;;;;;;10.07;8.27;;;17.10;99.90;;;;;;5045704;28;20074;-76
2023/07/12 04:45:24;;;;;;;14.20;10.13;;;17.10;99.90;;;;;;5075105;28;20028;-75
2023/07/12 04:47:50;;;;;;;14.50;11.40;;;17.10;99.90;;;;;;5051796;28;20040;-85
2023/07/12 04:50:17;;;;;;;13.60;10.57;;;17.10;99.90;;;;;;5051194;28;20591;-75
2023/07/12 04:52:43;;;;;;;14.43;11.73;;;17.10;99.90;;;;;;5041827;28;20036;-74
2023/07/12 04:55:22;;;;;;;13.05;10.45;;;17.10;99.90;;;;;;5034554;28;20043;-76
2023/07/12 04:57:48;;;;;;;13.30;11.43;;;17.20;99.90;;;;;;5034996;28;20065;-73
2023/07/12 05:00:15;;;;;;;13.07;11.50;;;17.20;99.90;;;;;;5020158;28;20031;-72
2023/07/12 05:02:42;;;;;;;15.73;11.32;;;17.20;99.90;;;;;;5051108;28;20063;-73
2023/07/12 05:05:09;;;;;;;15.30;13.02;;;17.30;99.90;;;;;;5058729;28;20025;-74
2023/07/12 05:07:36;;;;;;;17.48;14.80;;;17.20;99.90;;;;;;5037018;28;20036;-74
2023/07/12 05:10:03;;;;;;;16.90;13.57;;;17.20;99.90;;;;;;5050696;28;20493;-74
2023/07/12 05:12:30;;;;;;;14.73;12.68;;;17.20;99.90;;;;;;5040374;28;20403;-74
2023/07/12 05:14:56;;;;;;;16.63;13.95;;;17.20;99.90;;;;;;5046728;28;20036;-75
2023/07/12 05:17:23;;;;;;;15.80;13.75;;;17.20;99.90;;;;;;5047595;28;20037;-74
2023/07/12 05:19:49;;;;;;;15.55;12.15;;;17.30;99.90;;;;;;5047026;28;20600;-74
2023/07/12 05:22:16;;;;;;;17.55;13.27;;;17.30;99.90;;;;;;5039811;28;20051;-75
2023/07/12 05:24:42;;;;;;;18.50;13.68;;;17.30;99.90;;;;;;5056229;28;20047;-76
2023/07/12 05:27:08;;;;;;;14.70;11.70;;;17.30;99.90;;;;;;5054793;28;20040;-74
2023/07/12 05:29:35;;;;;;;16.23;14.50;;;17.30;99.90;;;;;;5052970;28;20467;-75
2023/07/12 05:32:01;;;;;;;15.85;13.77;;;17.40;99.90;;;;;;5043204;28;21056;-74
2023/07/12 05:34:27;;;;;;;17.05;15.23;;;17.40;99.90;;;;;;5044039;28;20565;-74
2023/07/12 05:36:54;;;;;;;16.23;14.40;;;17.50;99.90;;;;;;5030580;28;20295;-73
2023/07/12 05:39:20;;;;;;;18.40;15.27;;;17.60;99.90;;;;;;5047776;28;20040;-73
2023/07/12 05:41:46;;;;;;;18.55;12.45;;;17.60;99.90;;;;;;5029195;28;20044;-74
2023/07/12 05:44:13;;;;;;;14.80;11.65;;;17.60;99.90;;;;;;5048348;28;20499;-73
2023/07/12 05:46:39;;;;;;;12.30;10.98;;;17.60;99.90;;;;;;5058750;28;20063;-73
2023/07/12 05:49:05;;;;;;;12.85;10.90;;;17.70;99.90;;;;;;5054820;28;20047;-73
2023/07/12 05:51:32;;;;;;;16.08;11.27;;;17.70;99.90;;;;;;5035752;28;20497;-73
2023/07/12 05:53:58;;;;;;;18.02;11.38;;;17.70;99.90;;;;;;5046989;28;20447;-74
2023/07/12 05:56:24;;;;;;;11.00;9.48;;;17.80;99.90;;;;;;5037825;28;20055;-74
2023/07/12 05:58:51;;;;;;;11.95;8.85;;;17.80;99.90;;;;;;5032980;28;20042;-76
2023/07/12 06:01:17;;;;;;;55.35;47.38;;;17.90;99.90;;;;;;5050367;28;20394;-75
2023/07/12 06:03:43;;;;;;;19.60;14.55;;;18.00;99.90;;;;;;5042376;28;20043;-75
2023/07/12 06:06:10;;;;;;;15.38;11.55;;;18.00;99.90;;;;;;5055501;28;20036;-74
2023/07/12 06:08:36;;;;;;;10.55;7.95;;;18.00;99.90;;;;;;5060951;28;20312;-75
2023/07/12 06:11:03;;;;;;;9.00;7.13;;;18.00;99.90;;;;;;5061297;28;20035;-74
2023/07/12 06:13:30;;;;;;;8.25;6.43;;;17.90;99.90;;;;;;5034765;28;20546;-75
2023/07/12 06:15:56;;;;;;;11.88;6.93;;;18.00;99.90;;;;;;5053539;28;20047;-75
2023/07/12 06:18:23;;;;;;;9.70;6.35;;;18.00;99.90;;;;;;5054141;28;20028;-74
2023/07/12 06:21:03;;;;;;;6.95;4.78;;;18.10;99.90;;;;;;5034004;28;20390;-76
2023/07/12 06:23:30;;;;;;;16.17;6.82;;;18.10;99.90;;;;;;5026053;28;20028;-75
2023/07/12 06:25:57;;;;;;;10.40;6.05;;;18.10;99.90;;;;;;5051317;28;20047;-74
2023/07/12 06:28:24;;;;;;;8.57;4.97;;;18.10;99.90;;;;;;5055303;28;20507;-74
2023/07/12 06:30:51;;;;;;;8.50;5.10;;;18.10;99.90;;;;;;5058606;28;20032;-74
2023/07/12 06:33:17;;;;;;;8.45;5.30;;;18.10;99.90;;;;;;5031575;28;20035;-74
2023/07/12 06:35:43;;;;;;;9.75;4.93;;;18.20;99.90;;;;;;5055400;28;20041;-74
2023/07/12 06:38:10;;;;;;;8.95;5.10;;;18.20;99.90;;;;;;5033941;28;20478;-74
2023/07/12 06:40:38;;;;;;;7.82;5.03;;;18.40;99.90;;;;;;5034210;28;20048;-74
2023/07/12 06:43:05;;;;;;;10.30;5.13;;;18.60;99.90;;;;;;5039386;28;20048;-74
2023/07/12 06:45:31;;;;;;;7.13;4.28;;;18.70;99.90;;;;;;5033848;28;20036;-74
2023/07/12 06:47:58;;;;;;;7.22;4.22;;;18.70;99.90;;;;;;5053325;28;20031;-74
2023/07/12 06:50:24;;;;;;;7.88;3.75;;;18.70;99.90;;;;;;5052371;28;20032;-74
2023/07/12 06:52:50;;;;;;;10.43;4.43;;;18.80;99.90;;;;;;5057364;28;20028;-74
2023/07/12 06:55:17;;;;;;;14.20;5.50;;;18.90;99.90;;;;;;5056324;28;20383;-73
2023/07/12 06:57:43;;;;;;;8.65;4.07;;;19.00;99.90;;;;;;5046930;28;20032;-74
2023/07/12 07:00:12;;;;;;;8.38;4.18;;;19.00;99.90;;;;;;5036215;28;20044;-74
2023/07/12 07:02:38;;;;;;;9.00;3.38;;;18.90;99.90;;;;;;5048860;28;20028;-74
2023/07/12 07:05:05;;;;;;;9.55;4.00;;;18.80;99.90;;;;;;5040207;28;20047;-74
2023/07/12 07:07:31;;;;;;;9.05;3.70;;;18.80;99.90;;;;;;5068527;28;20398;-74
2023/07/12 07:09:57;;;;;;;5.53;3.58;;;18.80;99.90;;;;;;5035039;28;20708;-74
2023/07/12 07:12:24;;;;;;;7.20;3.17;;;18.80;99.90;;;;;;5056039;28;20036;-74
2023/07/12 07:14:50;;;;;;;7.60;3.78;;;18.80;99.90;;;;;;5060285;28;20419;-74
2023/07/12 07:17:16;;;;;;;6.88;3.63;;;18.80;99.90;;;;;;5056151;28;20171;-74
2023/07/12 07:19:43;;;;;;;6.97;3.53;;;18.90;99.90;;;;;;5073519;28;20491;-73
2023/07/12 07:22:09;;;;;;;7.30;3.50;;;19.00;99.90;;;;;;5052047;28;20698;-73
2023/07/12 07:24:35;;;;;;;7.15;3.63;;;19.00;99.90;;;;;;5055853;28;20040;-73
2023/07/12 07:27:02;;;;;;;11.57;3.58;;;19.00;99.90;;;;;;5051259;28;20040;-73
2023/07/12 07:29:28;;;;;;;8.60;4.20;;;19.10;99.90;;;;;;5053396;28;20035;-73
2023/07/12 07:31:55;;;;;;;11.18;3.97;;;19.20;99.90;;;;;;5047565;28;20423;-73
2023/07/12 07:34:21;;;;;;;9.98;3.97;;;19.30;99.90;;;;;;5048070;28;20036;-73
2023/07/12 07:36:47;;;;;;;10.02;4.40;;;19.40;99.90;;;;;;5050831;28;20031;-73
2023/07/12 07:39:13;;;;;;;9.95;5.03;;;19.50;99.90;;;;;;5035563;28;20040;-73
2023/07/12 07:41:40;;;;;;;5.90;3.28;;;19.50;99.90;;;;;;5055026;28;20355;-73
2023/07/12 07:44:06;;;;;;;4.45;2.60;;;19.40;99.90;;;;;;5050403;28;20043;-73
2023/07/12 07:46:33;;;;;;;11.45;4.35;;;19.40;99.90;;;;;;5034068;28;20647;-74
2023/07/12 07:48:59;;;;;;;7.70;3.95;;;19.50;99.90;;;;;;5050889;28;20036;-73
2023/07/12 07:51:27;;;;;;;8.05;3.40;;;19.50;99.90;;;;;;5052385;28;20043;-73
2023/07/12 07:53:53;;;;;;;7.75;2.80;;;19.50;99.90;;;;;;5041834;28;20036;-73
2023/07/12 07:56:20;;;;;;;10.40;4.25;;;19.40;99.90;;;;;;5048705;28;20066;-73
2023/07/12 07:58:46;;;;;;;7.70;3.42;;;19.40;99.90;;;;;;5036079;28;20047;-73
2023/07/12 08:01:12;;;;;;;8.55;3.42;;;19.40;99.90;;;;;;5041855;28;20032;-73
2023/07/12 08:03:45;;;;;;;;;;;19.40;99.90;;;;;;5050240;28;20039;-73
2023/07/12 08:06:11;;;;;;;6.18;2.42;;;19.30;99.90;;;;;;5052184;28;19915;-73
2023/07/12 08:08:38;;;;;;;8.40;2.80;;;19.40;99.90;;;;;;5048185;28;20036;-73
2023/07/12 08:11:06;;;;;;;8.20;2.33;;;19.60;99.90;;;;;;5052122;28;20659;-73
2023/07/12 08:13:33;;;;;;;7.40;2.70;;;19.70;99.90;;;;;;5028534;28;20032;-73
2023/07/12 08:15:59;;;;;;;9.13;2.97;;;19.80;99.90;;;;;;5048788;28;20035;-73
2023/07/12 08:18:26;;;;;;;9.07;2.35;;;19.90;99.90;;;;;;5051294;28;20036;-73
2023/07/12 08:20:54;;;;;;;9.18;2.65;;;20.00;99.90;;;;;;5054445;28;20032;-73
2023/07/12 08:23:21;;;;;;;10.38;2.58;;;20.10;99.90;;;;;;5050710;28;20471;-73
2023/07/12 08:25:52;;;;;;;6.20;2.13;;;20.00;99.90;;;;;;5057952;28;20032;-73
2023/07/12 08:28:19;;;;;;;6.57;1.40;;;19.90;99.90;;;;;;5046549;28;20387;-73
2023/07/12 08:30:45;;;;;;;8.32;2.53;;;19.90;99.90;;;;;;5051627;28;20020;-73
2023/07/12 08:33:12;;;;;;;8.05;2.75;;;20.00;99.90;;;;;;5042980;28;20498;-73
2023/07/12 08:35:39;;;;;;;8.65;2.47;;;19.90;99.90;;;;;;5049112;28;20533;-73
2023/07/12 08:38:05;;;;;;;4.72;1.80;;;20.00;99.90;;;;;;5050258;28;20036;-73
2023/07/12 08:40:31;;;;;;;7.07;2.47;;;20.00;99.90;;;;;;5067875;28;20024;-73
2023/07/12 08:42:59;;;;;;;8.05;2.53;;;20.10;99.90;;;;;;5048557;28;20070;-73
2023/07/12 08:45:29;;;;;;;6.47;2.40;;;20.30;99.90;;;;;;5059133;28;20640;-73
2023/07/12 08:48:01;;;;;;;6.60;2.03;;;20.50;99.90;;;;;;5052563;28;20512;-73
2023/07/12 08:50:34;;;;;;;7.25;2.10;;;20.70;99.90;;;;;;5050129;28;20033;-73
2023/07/12 08:53:01;;;;;;;7.53;2.67;;;20.90;99.90;;;;;;5039641;28;20093;-73
2023/07/12 08:55:28;;;;;;;10.30;2.72;;;21.30;99.90;;;;;;5049667;28;20036;-73
2023/07/12 08:58:03;;;;;;;8.23;2.78;;;21.40;99.90;;;;;;5050367;28;20490;-73
2023/07/12 09:00:34;;;;;;;11.68;3.53;;;21.40;99.90;;;;;;5050586;28;20029;-73
2023/07/12 09:03:00;;;;;;;10.05;2.38;;;21.30;99.90;;;;;;5049285;28;20038;-73
2023/07/12 09:05:28;;;;;;;9.20;3.00;;;21.40;99.90;;;;;;5057348;28;20409;-73
2023/07/12 09:08:14;;;;;;;9.60;2.45;;;21.50;99.90;;;;;;5054867;28;20047;-73
2023/07/12 09:10:47;;;;;;;10.02;2.47;;;21.70;99.90;;;;;;5058049;28;20383;-73
2023/07/12 09:13:15;;;;;;;8.30;1.67;;;21.90;99.90;;;;;;5038739;28;20592;-73
2023/07/12 09:15:52;;;;;;;5.75;1.38;;;22.00;99.90;;;;;;5048352;28;21697;-72
2023/07/12 09:18:37;;;;;;;8.18;1.83;;;22.10;99.90;;;;;;5079188;28;20043;-73
2023/07/12 09:21:21;;;;;;;4.50;1.45;;;22.50;99.90;;;;;;5064335;28;22002;-73
2023/07/12 09:23:48;;;;;;;9.73;2.35;;;22.80;99.90;;;;;;5040733;28;20710;-73
2023/07/12 09:26:29;;;;;;;8.40;2.15;;;23.10;99.90;;;;;;5054515;28;20063;-73
2023/07/12 09:28:57;;;;;;;5.30;2.00;;;23.40;99.90;;;;;;5059612;28;20394;-73
2023/07/12 09:31:28;;;;;;;6.95;1.90;;;23.30;99.90;;;;;;5058092;28;22453;-73
2023/07/12 09:34:00;;;;;;;5.13;1.17;;;23.20;99.90;;;;;;5039395;28;20063;-73
2023/07/12 09:36:27;;;;;;;8.50;1.92;;;23.10;99.90;;;;;;5046962;28;20047;-73
2023/07/12 09:39:00;;;;;;;5.90;1.33;;;23.20;99.90;;;;;;5050646;28;20668;-73
2023/07/12 09:41:27;;;;;;;5.53;1.20;;;23.40;99.90;;;;;;5061344;28;20048;-73
2023/07/12 09:43:56;;;;;;;5.85;1.25;;;23.50;99.90;;;;;;5038759;28;20040;-73
2023/07/12 09:46:29;;;;;;;5.82;1.17;;;23.70;99.90;;;;;;5052793;28;20028;-73
2023/07/12 09:49:13;;;;;;;6.90;1.92;;;23.70;99.90;;;;;;5060066;28;20047;-73
2023/07/12 09:51:55;;;;;;;6.38;1.40;;;23.80;99.90;;;;;;5037796;28;20043;-73
2023/07/12 09:54:40;;;;;;;7.00;1.52;;;23.90;99.90;;;;;;5045784;28;20044;-73
2023/07/12 09:57:31;;;;;;;5.47;1.70;;;24.10;99.90;;;;;;5052102;28;20055;-73
2023/07/12 10:00:26;;;;;;;5.30;0.93;;;24.40;99.90;;;;;;5062038;28;20039;-73
2023/07/12 10:03:13;;;;;;;7.15;1.40;;;24.30;99.90;;;;;;5023924;28;20075;-73
2023/07/12 10:05:56;;;;;;;5.72;1.13;;;24.40;99.90;;;;;;5050515;28;20040;-73
2023/07/12 10:08:24;;;;;;;4.40;1.10;;;24.40;99.90;;;;;;5064164;28;20521;-73
2023/07/12 10:11:12;;;;;;;5.68;1.00;;;24.20;99.90;;;;;;5058967;28;20066;-73
2023/07/12 10:13:48;;;;;;;6.90;1.23;;;24.10;99.90;;;;;;5046801;28;20036;-73
2023/07/12 10:16:35;;;;;;;7.50;1.35;;;24.50;99.90;;;;;;5063211;28;20036;-73
2023/07/12 10:19:25;;;;;;;6.13;1.67;;;24.70;99.90;;;;;;5063635;28;20040;-74
2023/07/12 10:21:55;;;;;;;4.45;0.90;;;24.60;99.90;;;;;;5075246;28;20052;-74
2023/07/12 10:24:28;;;;;;;4.70;1.30;;;24.60;99.90;;;;;;5047740;28;20227;-74
2023/07/12 10:26:56;;;;;;;4.95;1.10;;;24.70;99.90;;;;;;5048091;28;20028;-75
2023/07/12 10:29:32;;;;;;;6.50;1.70;;;24.90;99.90;;;;;;5040376;28;20028;-75
2023/07/12 10:32:00;;;;;;;5.18;1.10;;;25.00;99.90;;;;;;5036554;28;20603;-75
2023/07/12 10:34:37;;;;;;;6.60;1.90;;;25.00;99.90;;;;;;5055284;28;20074;-74
2023/07/12 10:37:33;;;;;;;7.13;1.27;;;24.90;99.90;;;;;;5035192;28;20028;-72
2023/07/12 10:40:00;;;;;;;3.90;0.98;;;24.90;99.90;;;;;;5048899;28;20581;-73
2023/07/12 10:42:41;;;;;;;6.05;1.20;;;24.80;99.90;;;;;;5034964;28;20038;-73
2023/07/12 10:45:24;;;;;;;10.13;1.90;;;24.60;99.90;;;;;;5046825;28;20393;-72
2023/07/12 10:47:52;;;;;;;7.45;1.65;;;23.90;99.90;;;;;;5020709;28;20047;-72
2023/07/12 10:50:32;;;;;;;6.18;1.30;;;22.90;99.90;;;;;;5056736;28;21293;-72
2023/07/12 10:53:01;;;;;;;5.13;2.05;;;22.10;99.90;;;;;;5043399;28;20028;-71
2023/07/12 10:55:36;;;;;;;6.60;1.98;;;21.50;99.90;;;;;;5059807;28;20032;-71
2023/07/12 10:58:21;;;;;;;6.47;1.20;;;21.30;99.90;;;;;;5061135;28;20881;-71
2023/07/12 11:00:51;;;;;;;5.53;1.77;;;21.30;99.90;;;;;;5050276;28;20048;-71
2023/07/12 11:03:34;;;;;;;8.93;1.98;;;21.20;99.90;;;;;;5057868;28;20035;-71
2023/07/12 11:06:06;;;;;;;6.68;1.52;;;21.00;99.90;;;;;;5049061;28;20036;-71
2023/07/12 11:08:32;;;;;;;8.00;2.00;;;20.90;99.90;;;;;;5056029;28;20487;-71
2023/07/12 11:11:00;;;;;;;9.18;1.95;;;20.70;99.90;;;;;;5058057;28;20059;-71
2023/07/12 11:13:34;;;;;;;4.45;1.25;;;20.70;99.90;;;;;;5044610;28;20287;-71
2023/07/12 11:16:14;;;;;;;5.20;1.10;;;21.00;99.90;;;;;;5052297;28;20032;-71
2023/07/12 11:18:54;;;;;;;6.75;1.02;;;21.70;99.90;;;;;;5059386;28;20040;-71
2023/07/12 11:21:40;;;;;;;7.65;1.38;;;22.40;99.90;;;;;;5057648;28;20036;-71
2023/07/12 11:24:25;;;;;;;4.03;0.70;;;23.10;99.90;;;;;;5058545;28;20043;-71
2023/07/12 11:26:57;;;;;;;6.13;1.08;;;23.40;99.90;;;;;;5051151;28;21220;-71
2023/07/12 11:29:31;;;;;;;4.25;0.90;;;23.50;99.90;;;;;;5065170;28;20035;-77
2023/07/12 11:32:02;;;;;;;5.95;1.05;;;23.50;99.90;;;;;;5048505;28;20032;-71
2023/07/12 11:34:30;;;;;;;4.10;0.85;;;23.20;99.90;;;;;;5045891;28;20044;-72
2023/07/12 11:36:59;;;;;;;4.95;0.80;;;23.30;99.90;;;;;;5054422;28;20471;-73
2023/07/12 11:39:28;;;;;;;4.85;0.80;;;23.80;99.90;;;;;;5041902;28;20043;-73
2023/07/12 11:42:03;;;;;;;6.07;1.30;;;24.20;99.90;;;;;;5052317;28;20051;-73
2023/07/12 11:44:30;;;;;;;6.38;1.20;;;24.40;99.90;;;;;;5049051;28;20052;-73
2023/07/12 11:46:57;;;;;;;5.13;0.95;;;24.50;99.90;;;;;;5035330;28;20611;-73
2023/07/12 11:49:29;;;;;;;5.00;0.98;;;24.80;99.90;;;;;;5052274;28;20044;-74
2023/07/12 11:52:04;;;;;;;6.20;1.15;;;25.40;99.90;;;;;;5047294;28;20035;-77
2023/07/12 11:54:40;;;;;;;4.82;1.10;;;26.30;99.90;;;;;;5031650;28;20071;-71
2023/07/12 11:57:12;;;;;;;4.68;1.00;;;26.80;99.90;;;;;;5072387;28;20043;-72
2023/07/12 11:59:39;;;;;;;4.50;0.80;;;27.30;99.90;;;;;;5058921;28;20044;-72
2023/07/12 12:02:14;;;;;;;3.35;0.90;;;27.60;99.90;;;;;;5052244;28;22002;-72
2023/07/12 12:04:40;;;;;;;2.53;0.50;;;27.80;99.90;;;;;;5048207;28;20044;-72
2023/07/12 12:07:27;;;;;;;2.85;0.95;;;28.10;99.90;;;;;;5054004;28;20047;-72
2023/07/12 12:09:56;;;;;;;4.68;0.90;;;28.20;99.90;;;;;;5051703;28;21132;-85
2023/07/12 12:12:29;;;;;;;5.95;0.95;;;28.00;99.90;;;;;;5040743;28;20036;-74
2023/07/12 12:14:56;;;;;;;5.78;1.00;;;27.90;99.90;;;;;;5049764;28;20023;-74
2023/07/12 12:17:36;;;;;;;4.45;0.70;;;27.80;99.90;;;;;;5052672;28;20417;-73
2023/07/12 12:20:11;;;;;;;6.10;0.98;;;28.30;99.30;;;;;;5052503;28;20482;-75
2023/07/12 12:22:43;;;;;;;8.93;1.00;;;29.00;98.20;;;;;;5062462;28;20514;-75
2023/07/12 12:25:21;;;;;;;7.35;1.67;;;29.40;96.10;;;;;;5058983;28;20035;-75
2023/07/12 12:27:48;;;;;;;5.00;0.60;;;29.50;95.50;;;;;;5057349;28;20505;-74
2023/07/12 12:30:14;;;;;;;4.47;0.65;;;29.80;95.00;;;;;;5069150;28;20490;-74
2023/07/12 12:32:43;;;;;;;4.00;0.75;;;30.20;93.90;;;;;;5043500;28;20042;-73
2023/07/12 12:35:15;;;;;;;4.35;0.77;;;30.60;93.40;;;;;;5047698;28;20075;-74
2023/07/12 12:38:11;;;;;;;2.88;0.70;;;31.10;92.40;;;;;;5048869;28;20040;-74
2023/07/12 12:40:45;;;;;;;4.75;0.73;;;31.60;91.50;;;;;;5049982;28;21467;-74
2023/07/12 12:43:18;;;;;;;2.17;0.50;;;31.90;90.50;;;;;;5041449;28;20055;-74
2023/07/12 12:45:45;;;;;;;4.05;0.90;;;32.40;88.50;;;;;;5051669;28;20036;-74
2023/07/12 12:48:12;;;;;;;5.03;0.80;;;32.70;86.00;;;;;;5057917;28;20051;-74
2023/07/12 12:50:39;;;;;;;5.38;0.80;;;33.10;84.40;;;;;;5058288;28;20023;-75
2023/07/12 12:53:12;;;;;;;4.82;0.77;;;33.50;82.20;;;;;;5045109;28;20024;-74
2023/07/12 12:55:39;;;;;;;4.80;0.77;;;33.20;79.70;;;;;;5049961;28;20060;-74